Time;durP1;ratioP1;P1;durP2;ratioP2;P2;SDS_P1;SDS_P2;PMS_P1;PMS_P2;Temp;Humidity;BMP_temperature;BMP_pressure;BME280_temperature;BME280_humidity;BME280_pressure;Samples;Min_cycle;Max_cycle;Signal;HPM_P1;HPM_P2
2021/07/27 00:01:12;;;;;;;24.27;6.70;;;15.30;99.90;;;;;;5011744;28;20364;-54
2021/07/27 00:03:39;;;;;;;19.67;6.53;;;15.30;99.90;;;;;;5026356;28;20701;-53
2021/07/27 00:06:09;;;;;;;10.87;6.40;;;15.30;99.90;;;;;;5025059;28;20450;-54
2021/07/27 00:08:36;;;;;;;9.73;4.87;;;15.30;99.90;;;;;;5009840;28;20553;-54
2021/07/27 00:11:11;;;;;;;11.33;5.00;;;15.20;99.90;;;;;;5027046;28;20600;-55
2021/07/27 00:13:39;;;;;;;7.00;5.60;;;15.20;99.90;;;;;;5025472;28;20830;-55
2021/07/27 00:16:05;;;;;;;13.97;4.90;;;15.20;99.90;;;;;;5008129;28;20442;-54
2021/07/27 00:18:31;;;;;;;20.67;6.03;;;15.20;99.90;;;;;;5029888;28;20820;-54
2021/07/27 00:20:59;;;;;;;9.90;6.20;;;15.20;99.90;;;;;;5030737;28;20406;-53
2021/07/27 00:23:25;;;;;;;20.47;6.80;;;15.20;99.90;;;;;;5028580;28;20519;-53
2021/07/27 00:25:50;;;;;;;8.77;5.53;;;15.10;99.90;;;;;;5021109;28;20451;-54
2021/07/27 00:28:16;;;;;;;16.63;5.83;;;15.10;99.90;;;;;;5029629;28;20577;-55
2021/07/27 00:30:42;;;;;;;33.80;6.30;;;15.00;99.90;;;;;;5028883;28;20218;-54
2021/07/27 00:33:08;;;;;;;28.63;5.93;;;15.00;99.90;;;;;;5012436;28;20176;-56
2021/07/27 00:35:34;;;;;;;12.43;5.20;;;15.00;99.90;;;;;;5028259;28;20853;-55
2021/07/27 00:38:09;;;;;;;8.30;4.77;;;14.90;99.90;;;;;;5029445;28;20179;-55
2021/07/27 00:40:39;;;;;;;19.27;5.00;;;14.90;99.90;;;;;;5029993;28;20175;-55
2021/07/27 00:43:10;;;;;;;16.47;6.00;;;14.90;99.90;;;;;;5012266;28;20458;-55
2021/07/27 00:45:36;;;;;;;13.63;5.67;;;14.90;99.90;;;;;;5012595;28;20556;-56
2021/07/27 00:48:02;;;;;;;11.70;5.43;;;14.90;99.90;;;;;;5023568;28;20870;-54
2021/07/27 00:50:29;;;;;;;9.23;5.30;;;14.90;99.90;;;;;;5026835;28;20256;-55
2021/07/27 00:52:59;;;;;;;14.43;4.87;;;14.90;99.90;;;;;;5022664;28;20450;-55
2021/07/27 00:55:26;;;;;;;17.93;6.10;;;14.90;99.90;;;;;;5027260;28;20430;-56
2021/07/27 00:57:52;;;;;;;7.77;5.17;;;14.90;99.90;;;;;;5028734;28;20422;-54
2021/07/27 01:00:18;;;;;;;21.43;6.37;;;14.90;99.90;;;;;;5025423;28;20478;-55
2021/07/27 01:02:43;;;;;;;7.07;5.33;;;14.90;99.90;;;;;;5027137;28;20199;-56
2021/07/27 01:05:10;;;;;;;9.47;6.43;;;14.90;99.90;;;;;;5011129;28;20441;-55
2021/07/27 01:07:37;;;;;;;18.13;5.87;;;14.90;99.90;;;;;;5028461;28;20200;-53
2021/07/27 01:10:08;;;;;;;16.30;6.33;;;14.90;99.90;;;;;;5029174;28;20410;-54
2021/07/27 01:12:34;;;;;;;15.23;6.13;;;14.90;99.90;;;;;;5029355;28;20441;-55
2021/07/27 01:15:00;;;;;;;27.07;6.30;;;14.90;99.90;;;;;;5027610;28;20438;-54
2021/07/27 01:17:26;;;;;;;16.50;5.63;;;14.80;99.90;;;;;;5026758;28;20946;-55
2021/07/27 01:44:28;;;;;;;22.63;5.30;;;14.50;99.90;;;;;;5026882;28;20522;-55
2021/07/27 01:46:53;;;;;;;29.47;5.60;;;14.50;99.90;;;;;;5025685;28;20546;-54
2021/07/27 01:49:19;;;;;;;39.53;6.50;;;14.50;99.90;;;;;;5020062;28;20429;-55
2021/07/27 01:51:46;;;;;;;39.57;6.33;;;14.50;99.90;;;;;;5026945;28;20578;-54
2021/07/27 01:54:15;;;;;;;28.73;5.97;;;14.50;99.90;;;;;;5021140;28;20311;-54
2021/07/27 01:56:41;;;;;;;33.83;6.40;;;14.50;99.90;;;;;;5019289;28;20430;-55
2021/07/27 01:59:10;;;;;;;80.13;7.10;;;14.50;99.90;;;;;;5008398;28;20908;-55
2021/07/27 02:01:37;;;;;;;17.23;5.37;;;14.50;99.90;;;;;;5022485;28;20437;-55
2021/07/27 02:04:03;;;;;;;25.53;6.30;;;14.50;99.90;;;;;;5028105;28;20598;-54
2021/07/27 02:06:29;;;;;;;67.77;6.07;;;14.50;99.90;;;;;;5027004;28;20528;-54
2021/07/27 02:08:55;;;;;;;23.73;5.10;;;14.40;99.90;;;;;;5025498;28;20460;-55
2021/07/27 02:11:26;;;;;;;12.67;5.53;;;14.40;99.90;;;;;;5027617;28;20172;-54
2021/07/27 02:13:54;;;;;;;31.10;6.07;;;14.40;99.90;;;;;;5027963;28;20422;-54
2021/07/27 02:16:20;;;;;;;54.57;6.33;;;14.30;99.90;;;;;;5027599;28;20442;-55
2021/07/27 02:18:45;;;;;;;90.27;7.10;;;14.30;99.90;;;;;;5027665;28;20927;-55
2021/07/27 02:21:11;;;;;;;48.70;7.20;;;14.30;99.90;;;;;;5009899;28;20594;-56
2021/07/27 02:23:37;;;;;;;119.20;8.00;;;14.30;99.90;;;;;;5026888;28;20199;-54
2021/07/27 02:26:04;;;;;;;47.23;7.43;;;14.20;99.90;;;;;;5043467;23;20255;-59
2021/07/27 02:28:32;;;;;;;44.97;7.47;;;14.20;99.90;;;;;;5030106;28;20160;-59
2021/07/27 02:31:01;;;;;;;71.03;8.23;;;14.20;99.90;;;;;;5029857;28;20540;-60
2021/07/27 02:33:28;;;;;;;19.33;5.73;;;14.20;99.90;;;;;;5029532;28;20406;-59
2021/07/27 02:35:53;;;;;;;8.60;5.03;;;14.20;99.90;;;;;;5028466;28;20561;-60
2021/07/27 02:38:19;;;;;;;75.03;6.70;;;14.20;99.90;;;;;;5030067;28;20497;-60
2021/07/27 02:40:45;;;;;;;42.57;7.00;;;14.20;99.90;;;;;;5029462;28;20186;-60
2021/07/27 02:43:11;;;;;;;30.93;5.77;;;14.20;99.90;;;;;;5034317;28;20208;-58
2021/07/27 02:45:37;;;;;;;40.07;6.77;;;14.20;99.90;;;;;;5028426;28;20434;-59
2021/07/27 02:48:03;;;;;;;22.27;6.00;;;14.20;99.90;;;;;;5021200;28;20183;-60
2021/07/27 02:50:33;;;;;;;8.27;5.10;;;14.10;99.90;;;;;;5026757;28;20543;-61
2021/07/27 02:52:58;;;;;;;11.20;5.90;;;14.10;99.90;;;;;;5029071;28;20437;-59
2021/07/27 02:55:24;;;;;;;31.93;5.70;;;14.10;99.90;;;;;;5028309;28;20473;-60
2021/07/27 02:57:50;;;;;;;38.73;6.30;;;14.10;99.90;;;;;;5029961;28;20690;-60
2021/07/27 03:00:16;;;;;;;18.70;4.90;;;14.10;99.90;;;;;;5029273;28;20600;-61
2021/07/27 03:02:46;;;;;;;11.57;5.90;;;14.10;99.90;;;;;;5018179;28;20295;-60
2021/07/27 03:05:16;;;;;;;29.33;6.50;;;14.10;99.90;;;;;;5011134;28;20466;-60
2021/07/27 03:12:47;;;;;;;22.23;5.67;;;14.10;99.90;;;;;;5027399;28;20464;-60
2021/07/27 03:15:14;;;;;;;25.97;5.90;;;14.10;99.90;;;;;;5024657;28;20443;-59
2021/07/27 03:17:41;;;;;;;10.70;5.23;;;14.10;99.90;;;;;;5038809;28;20438;-60
2021/07/27 03:20:08;;;;;;;45.03;6.50;;;14.10;99.90;;;;;;5029943;28;20412;-60
2021/07/27 03:22:34;;;;;;;12.93;5.30;;;14.10;99.90;;;;;;5028695;28;20450;-60
2021/07/27 03:25:00;;;;;;;22.97;5.60;;;14.10;99.90;;;;;;5028510;28;20417;-60
2021/07/27 03:27:25;;;;;;;37.67;5.33;;;14.10;99.90;;;;;;5024641;28;20758;-60
2021/07/27 03:29:51;;;;;;;25.50;5.87;;;14.00;99.90;;;;;;5028528;28;20198;-60
2021/07/27 03:32:17;;;;;;;75.17;6.50;;;14.00;99.90;;;;;;5027732;28;20179;-60
2021/07/27 03:34:43;;;;;;;35.03;5.90;;;14.00;99.90;;;;;;5026965;28;20176;-59
2021/07/27 03:37:12;;;;;;;44.17;5.40;;;13.90;99.90;;;;;;5028179;28;20318;-59
2021/07/27 03:39:38;;;;;;;39.43;5.93;;;13.90;99.90;;;;;;5027982;28;20414;-59
2021/07/27 03:42:04;;;;;;;86.27;7.50;;;13.80;99.90;;;;;;5024818;28;20458;-60
2021/07/27 03:44:30;;;;;;;49.07;6.73;;;13.80;99.90;;;;;;5020951;28;20168;-60
2021/07/27 03:47:07;;;;;;;29.17;5.27;;;13.80;99.90;;;;;;5020967;28;20470;-60
2021/07/27 03:49:33;;;;;;;23.63;5.40;;;13.80;99.90;;;;;;5026918;28;20209;-60
2021/07/27 03:52:03;;;;;;;24.10;5.13;;;13.70;99.90;;;;;;5029413;28;20454;-59
2021/07/27 03:54:30;;;;;;;23.33;4.83;;;13.70;99.90;;;;;;5029640;28;20410;-59
2021/07/27 03:56:56;;;;;;;61.97;6.87;;;13.70;99.90;;;;;;5030158;28;20973;-58
2021/07/27 03:59:22;;;;;;;39.80;5.80;;;13.70;99.90;;;;;;5030947;28;20438;-58
2021/07/27 04:01:49;;;;;;;92.93;6.37;;;13.70;99.90;;;;;;5016880;28;20186;-57
2021/07/27 04:04:18;;;;;;;80.80;6.70;;;13.70;99.90;;;;;;5026953;28;20179;-57
2021/07/27 04:06:47;;;;;;;54.33;5.60;;;13.60;99.90;;;;;;5023526;28;20454;-57
2021/07/27 04:09:13;;;;;;;56.83;6.53;;;13.60;99.90;;;;;;5021629;28;20486;-57
2021/07/27 04:11:39;;;;;;;14.97;4.97;;;13.60;99.90;;;;;;5015436;28;20435;-57
2021/07/27 04:14:05;;;;;;;60.53;5.87;;;13.60;99.90;;;;;;5018683;28;20214;-58
2021/07/27 04:16:31;;;;;;;78.93;7.50;;;13.60;99.90;;;;;;5025596;28;20192;-57
2021/07/27 04:18:57;;;;;;;38.10;6.13;;;13.60;99.90;;;;;;5025832;28;20437;-58
2021/07/27 04:21:24;;;;;;;31.23;5.70;;;13.60;99.90;;;;;;5020004;28;20188;-58
2021/07/27 04:23:50;;;;;;;28.17;5.57;;;13.60;99.90;;;;;;5019787;28;20215;-58
2021/07/27 04:26:15;;;;;;;60.80;7.07;;;13.60;99.90;;;;;;5020986;28;20882;-55
2021/07/27 04:28:42;;;;;;;33.50;6.40;;;13.60;99.90;;;;;;5024623;28;20172;-60
2021/07/27 04:31:07;;;;;;;17.37;5.00;;;13.70;99.90;;;;;;5025619;28;20674;-60
2021/07/27 04:33:33;;;;;;;43.67;5.37;;;13.70;99.90;;;;;;5026253;28;20470;-60
2021/07/27 04:35:59;;;;;;;55.80;4.83;;;13.70;99.90;;;;;;5025437;28;20172;-59
2021/07/27 04:38:25;;;;;;;53.63;6.27;;;13.70;99.90;;;;;;5014841;28;20673;-59
2021/07/27 04:40:50;;;;;;;23.17;5.27;;;13.60;99.90;;;;;;5021450;28;20520;-56
2021/07/27 04:43:16;;;;;;;66.07;6.03;;;13.60;99.90;;;;;;5023135;28;20214;-58
2021/07/27 04:45:41;;;;;;;10.83;4.20;;;13.60;99.90;;;;;;5015145;28;20270;-61
2021/07/27 04:48:07;;;;;;;23.93;5.10;;;13.60;99.90;;;;;;5021759;28;20607;-57
2021/07/27 04:50:33;;;;;;;28.70;4.90;;;13.60;99.90;;;;;;5025685;28;20180;-58
2021/07/27 04:53:06;;;;;;;51.23;6.40;;;13.70;99.90;;;;;;5032054;28;20172;-58
2021/07/27 04:55:32;;;;;;;44.03;7.53;;;13.70;99.90;;;;;;5028813;28;20249;-58
2021/07/27 04:57:57;;;;;;;32.70;6.00;;;13.70;99.90;;;;;;5029917;28;20458;-58
2021/07/27 05:00:26;;;;;;;55.50;5.87;;;13.70;99.90;;;;;;5016255;28;20180;-59
2021/07/27 05:02:52;;;;;;;27.57;5.27;;;13.70;99.90;;;;;;5027346;28;20605;-59
2021/07/27 05:05:18;;;;;;;53.30;6.63;;;13.70;99.90;;;;;;5026063;28;20801;-58
2021/07/27 05:07:47;;;;;;;20.03;6.30;;;13.70;99.90;;;;;;5031493;28;20457;-59
2021/07/27 05:10:13;;;;;;;36.37;5.90;;;13.70;99.90;;;;;;5022833;28;20182;-58
2021/07/27 05:12:39;;;;;;;43.93;6.40;;;13.80;99.90;;;;;;5030302;28;20414;-58
2021/07/27 05:15:05;;;;;;;40.73;6.77;;;13.80;99.90;;;;;;5021161;28;20426;-59
2021/07/27 05:17:31;;;;;;;40.93;8.30;;;13.80;99.90;;;;;;5028899;28;20207;-58
2021/07/27 05:19:57;;;;;;;23.27;8.93;;;13.80;99.90;;;;;;5028082;28;20434;-58
2021/07/27 05:22:23;;;;;;;18.70;8.80;;;13.80;99.90;;;;;;5031088;28;20454;-58
2021/07/27 05:24:50;;;;;;;39.87;8.10;;;13.90;99.90;;;;;;5030852;28;20215;-59
2021/07/27 05:27:16;;;;;;;152.97;12.70;;;13.90;99.90;;;;;;5030859;28;20199;-58
2021/07/27 05:29:42;;;;;;;30.43;9.83;;;14.00;99.90;;;;;;5031456;28;20930;-58
2021/07/27 05:32:07;;;;;;;42.03;8.80;;;13.90;99.90;;;;;;5029171;28;20423;-59
2021/07/27 05:34:33;;;;;;;24.93;9.43;;;14.00;99.90;;;;;;5026885;28;20729;-58
2021/07/27 05:36:59;;;;;;;25.13;8.73;;;14.00;99.90;;;;;;5030201;28;20693;-58
2021/07/27 05:39:24;;;;;;;44.80;10.33;;;14.00;99.90;;;;;;5010787;28;20178;-59
2021/07/27 05:41:50;;;;;;;67.67;11.60;;;14.10;99.90;;;;;;5031195;28;20175;-60
2021/07/27 05:44:15;;;;;;;123.17;13.57;;;14.10;99.90;;;;;;5035796;28;20168;-58
2021/07/27 05:46:41;;;;;;;48.63;15.07;;;14.10;99.90;;;;;;5042591;28;20191;-58
2021/07/27 05:49:10;;;;;;;58.63;18.80;;;14.10;99.90;;;;;;5034638;28;20179;-58
2021/07/27 05:51:35;;;;;;;45.53;18.17;;;14.10;99.90;;;;;;5041169;28;20175;-58
2021/07/27 05:54:01;;;;;;;66.13;18.50;;;14.20;99.90;;;;;;5037343;28;20456;-58
2021/07/27 05:56:26;;;;;;;59.70;16.70;;;14.20;99.90;;;;;;5029870;28;20295;-59
2021/07/27 05:58:53;;;;;;;59.67;17.80;;;14.30;99.90;;;;;;5029425;28;20176;-58
2021/07/27 06:01:19;;;;;;;49.60;18.03;;;14.30;99.90;;;;;;5030099;28;20683;-58
2021/07/27 06:03:45;;;;;;;39.50;14.67;;;14.30;99.90;;;;;;5030104;28;20533;-58
2021/07/27 06:06:10;;;;;;;72.27;13.70;;;14.30;99.90;;;;;;5029336;28;20203;-58
2021/07/27 06:08:36;;;;;;;35.63;11.90;;;14.30;99.90;;;;;;5029327;28;20668;-58
2021/07/27 06:11:09;;;;;;;26.30;11.97;;;14.30;99.90;;;;;;5029326;28;20183;-59
2021/07/27 06:13:34;;;;;;;27.47;11.60;;;14.40;99.90;;;;;;5027353;28;20215;-59
2021/07/27 06:16:07;;;;;;;31.87;13.50;;;14.40;99.90;;;;;;5028802;28;20466;-60
2021/07/27 06:18:33;;;;;;;28.00;12.40;;;14.50;99.90;;;;;;5029076;28;20180;-58
2021/07/27 06:20:59;;;;;;;27.73;11.00;;;14.50;99.90;;;;;;5030139;28;20418;-58
2021/07/27 06:23:25;;;;;;;48.27;15.30;;;14.50;99.90;;;;;;5028266;28;20453;-59
2021/07/27 06:25:51;;;;;;;31.93;14.20;;;14.50;99.90;;;;;;5027225;28;20430;-57
2021/07/27 06:28:16;;;;;;;40.40;16.60;;;14.50;99.90;;;;;;5026796;28;20322;-59
2021/07/27 06:30:42;;;;;;;29.33;12.67;;;14.50;99.90;;;;;;5029615;28;20685;-59
2021/07/27 06:33:07;;;;;;;21.80;10.53;;;14.50;99.90;;;;;;5029971;28;20179;-58
2021/07/27 06:35:33;;;;;;;33.20;13.20;;;14.60;99.90;;;;;;5029434;28;20183;-58
2021/07/27 06:37:59;;;;;;;32.07;12.40;;;14.60;99.90;;;;;;5028169;28;20195;-58
2021/07/27 06:40:25;;;;;;;21.03;9.60;;;14.60;99.90;;;;;;5030187;28;20178;-58
2021/07/27 06:42:50;;;;;;;19.10;9.50;;;14.60;99.90;;;;;;5029410;28;20282;-59
2021/07/27 06:45:16;;;;;;;21.37;10.90;;;14.70;99.90;;;;;;5023276;28;20172;-59
2021/07/27 06:47:42;;;;;;;27.67;11.00;;;14.80;99.90;;;;;;5028807;28;20847;-58
2021/07/27 06:50:08;;;;;;;16.47;9.67;;;15.00;99.90;;;;;;5030195;28;20199;-58
2021/07/27 06:52:33;;;;;;;17.60;10.20;;;15.10;99.90;;;;;;5022264;28;20188;-58
2021/07/27 06:54:59;;;;;;;20.57;9.67;;;15.10;99.90;;;;;;5029110;28;20168;-58
2021/07/27 06:57:26;;;;;;;14.50;7.93;;;15.20;99.90;;;;;;5029033;28;20191;-58
2021/07/27 06:59:52;;;;;;;10.87;6.97;;;15.20;99.90;;;;;;5029111;28;20180;-59
2021/07/27 07:02:17;;;;;;;15.90;8.30;;;15.30;99.90;;;;;;5017208;28;20509;-59
2021/07/27 07:04:43;;;;;;;20.37;10.50;;;15.40;99.90;;;;;;5027619;28;20172;-58
2021/07/27 07:07:09;;;;;;;24.03;12.03;;;15.60;99.90;;;;;;5027893;28;20760;-58
2021/07/27 07:09:35;;;;;;;24.80;13.10;;;15.70;99.90;;;;;;5029061;28;20613;-58
2021/07/27 07:12:01;;;;;;;27.33;14.43;;;15.90;99.90;;;;;;5029923;28;20719;-58
2021/07/27 07:14:26;;;;;;;31.03;14.00;;;16.20;99.90;;;;;;5025297;28;20435;-58
2021/07/27 07:16:52;;;;;;;28.67;13.80;;;16.30;99.90;;;;;;5020420;28;20612;-59
2021/07/27 07:19:19;;;;;;;30.43;15.50;;;16.40;99.90;;;;;;5027643;28;20630;-59
2021/07/27 07:21:45;;;;;;;27.33;13.20;;;16.40;99.90;;;;;;5029317;28;20203;-57
2021/07/27 07:24:10;;;;;;;25.27;12.87;;;16.50;99.90;;;;;;5028585;28;20498;-59
2021/07/27 07:26:37;;;;;;;20.90;11.70;;;16.50;99.90;;;;;;5028568;28;20210;-60
2021/07/27 07:29:03;;;;;;;19.70;9.90;;;16.60;99.90;;;;;;5028003;28;20179;-59
2021/07/27 07:31:29;;;;;;;13.43;7.83;;;16.80;99.90;;;;;;5016530;28;20789;-58
2021/07/27 07:33:56;;;;;;;14.67;9.30;;;16.90;99.90;;;;;;5027228;28;20180;-58
2021/07/27 07:36:22;;;;;;;19.57;9.77;;;17.10;99.90;;;;;;5028772;28;20681;-59
2021/07/27 07:38:48;;;;;;;17.30;9.37;;;17.30;99.90;;;;;;5028681;28;20540;-60
2021/07/27 07:41:14;;;;;;;21.63;11.83;;;17.40;99.90;;;;;;5025666;28;20489;-58
2021/07/27 07:43:40;;;;;;;16.83;10.13;;;17.60;99.90;;;;;;5010704;28;20833;-59
2021/07/27 07:46:06;;;;;;;16.47;10.47;;;17.70;99.90;;;;;;5014821;28;20173;-59
2021/07/27 07:48:32;;;;;;;11.73;9.10;;;17.90;99.90;;;;;;5024164;28;20426;-59
2021/07/27 07:50:57;;;;;;;12.50;9.20;;;18.00;99.90;;;;;;5042822;28;20419;-59
2021/07/27 07:53:23;;;;;;;15.60;9.20;;;18.20;99.90;;;;;;5028119;28;20516;-59
2021/07/27 07:55:49;;;;;;;13.00;8.67;;;18.30;99.90;;;;;;5021709;28;20199;-58
2021/07/27 07:58:14;;;;;;;12.43;8.50;;;18.40;99.90;;;;;;5021090;28;20200;-58
2021/07/27 08:00:40;;;;;;;13.13;8.53;;;18.50;99.90;;;;;;5008262;28;20175;-59
2021/07/27 08:03:05;;;;;;;11.80;8.20;;;18.60;99.90;;;;;;5017892;28;20206;-59
2021/07/27 08:05:31;;;;;;;11.47;8.30;;;18.60;99.90;;;;;;5024130;28;20660;-58
2021/07/27 08:07:57;;;;;;;11.97;8.60;;;18.60;99.90;;;;;;5012498;28;20235;-60
2021/07/27 08:10:23;;;;;;;18.10;8.93;;;18.60;99.90;;;;;;5027363;28;20180;-59
2021/07/27 08:12:48;;;;;;;10.80;8.80;;;18.60;99.90;;;;;;5018671;28;20176;-58
2021/07/27 08:15:18;;;;;;;16.70;8.67;;;18.60;99.90;;;;;;5024760;28;20176;-59
2021/07/27 08:17:44;;;;;;;12.13;8.60;;;18.60;99.90;;;;;;5026984;28;20192;-59
2021/07/27 08:20:14;;;;;;;12.03;7.60;;;18.60;99.90;;;;;;5029129;28;20409;-59
2021/07/27 08:22:41;;;;;;;10.60;8.00;;;18.60;99.90;;;;;;5027351;28;20465;-58
2021/07/27 08:25:07;;;;;;;16.40;9.07;;;18.70;99.90;;;;;;5024596;28;20434;-59
2021/07/27 08:27:33;;;;;;;11.07;7.90;;;18.80;99.90;;;;;;5048182;23;20505;-54
2021/07/27 08:29:59;;;;;;;10.60;7.90;;;19.00;99.90;;;;;;5019062;28;20433;-52
2021/07/27 08:32:24;;;;;;;11.50;8.00;;;19.00;99.90;;;;;;5025715;28;20210;-53
2021/07/27 08:34:50;;;;;;;11.77;7.70;;;19.00;99.90;;;;;;5024181;28;20552;-53
2021/07/27 08:37:16;;;;;;;8.53;6.67;;;19.00;99.90;;;;;;5025567;28;20585;-53
2021/07/27 08:39:41;;;;;;;9.10;7.00;;;19.10;99.90;;;;;;5028985;28;20456;-53
2021/07/27 08:42:07;;;;;;;17.30;7.73;;;19.20;99.90;;;;;;5028687;28;20238;-54
2021/07/27 08:44:35;;;;;;;14.07;7.20;;;19.30;99.90;;;;;;5023778;28;20531;-53
2021/07/27 08:47:05;;;;;;;11.93;7.53;;;19.40;99.90;;;;;;5011645;28;20756;-53
2021/07/27 08:49:32;;;;;;;8.60;6.63;;;19.50;99.90;;;;;;5026721;28;20775;-52
2021/07/27 08:51:59;;;;;;;10.43;7.10;;;19.60;99.90;;;;;;5029349;28;20490;-53
2021/07/27 08:54:24;;;;;;;10.63;7.23;;;19.70;99.90;;;;;;5026886;28;20407;-53
2021/07/27 08:56:52;;;;;;;10.63;7.63;;;19.70;99.90;;;;;;5010253;28;20450;-52
2021/07/27 08:59:18;;;;;;;11.70;6.20;;;19.80;99.90;;;;;;5018627;28;20168;-53
2021/07/27 09:01:44;;;;;;;14.63;8.27;;;19.80;99.90;;;;;;5027471;28;20437;-53
2021/07/27 09:04:11;;;;;;;9.87;6.10;;;19.90;99.90;;;;;;5027740;28;20430;-53
2021/07/27 09:06:37;;;;;;;15.63;6.30;;;20.00;99.90;;;;;;5028435;28;20637;-54
2021/07/27 09:09:06;;;;;;;7.10;5.87;;;20.00;99.90;;;;;;5029686;28;20512;-53
2021/07/27 09:11:32;;;;;;;10.40;6.70;;;20.10;99.90;;;;;;5028903;28;20509;-53
2021/07/27 09:13:58;;;;;;;11.97;7.20;;;20.30;99.90;;;;;;5028398;28;20463;-53
2021/07/27 09:16:23;;;;;;;8.77;6.63;;;20.40;99.90;;;;;;5020723;28;20410;-53
2021/07/27 09:18:59;;;;;;;9.60;5.57;;;20.50;99.50;;;;;;5029066;28;20636;-54
2021/07/27 09:21:25;;;;;;;8.50;6.30;;;20.60;99.70;;;;;;5028822;28;20178;-54
2021/07/27 09:23:51;;;;;;;11.00;5.67;;;20.70;99.80;;;;;;5027902;28;20446;-55
2021/07/27 09:26:21;;;;;;;8.60;6.50;;;20.90;99.50;;;;;;5028908;28;20172;-54
2021/07/27 09:28:47;;;;;;;8.80;6.33;;;21.00;99.90;;;;;;5029638;28;20265;-53
2021/07/27 09:31:12;;;;;;;12.60;7.60;;;21.30;99.70;;;;;;5028937;28;20403;-53
2021/07/27 09:33:38;;;;;;;9.80;6.10;;;21.40;99.70;;;;;;5028606;28;20471;-54
2021/07/27 09:36:05;;;;;;;8.60;6.30;;;21.50;99.30;;;;;;5028103;28;20176;-54
2021/07/27 09:38:34;;;;;;;10.80;7.03;;;21.60;99.20;;;;;;5024887;28;20187;-54
2021/07/27 09:41:07;;;;;;;10.80;7.20;;;21.80;98.90;;;;;;5025827;28;20430;-54
2021/07/27 09:43:35;;;;;;;7.90;6.53;;;21.90;98.00;;;;;;5027315;28;20446;-56
2021/07/27 09:46:01;;;;;;;9.40;6.40;;;22.00;97.60;;;;;;5028830;28;20556;-55
2021/07/27 09:48:28;;;;;;;7.80;6.23;;;22.00;96.60;;;;;;5023690;28;20454;-56
2021/07/27 09:50:56;;;;;;;9.00;6.50;;;22.00;96.80;;;;;;5024465;28;20421;-56
2021/07/27 09:53:23;;;;;;;16.53;6.70;;;21.80;94.30;;;;;;5028159;28;20425;-54
2021/07/27 09:55:50;;;;;;;7.90;6.10;;;21.80;96.70;;;;;;5028462;28;20454;-56
2021/07/27 09:58:17;;;;;;;10.97;6.00;;;21.90;97.40;;;;;;5029426;28;20479;-56
2021/07/27 10:01:00;;;;;;;8.57;5.60;;;21.90;97.90;;;;;;5026646;28;20769;-55
2021/07/27 10:03:47;;;;;;;10.07;5.80;;;22.00;97.60;;;;;;5028117;28;20780;-54
2021/07/27 10:06:24;;;;;;;13.03;6.37;;;22.10;97.60;;;;;;5026599;28;20418;-51
2021/07/27 10:09:08;;;;;;;10.63;5.63;;;22.20;96.40;;;;;;5025571;28;20442;-53
2021/07/27 10:11:38;;;;;;;10.97;5.83;;;22.10;94.80;;;;;;5026844;28;20433;-56
2021/07/27 10:14:09;;;;;;;8.23;5.77;;;22.00;95.90;;;;;;5027877;28;20556;-53
2021/07/27 10:16:36;;;;;;;7.17;5.50;;;22.00;96.40;;;;;;5027982;28;20410;-54
2021/07/27 10:19:11;;;;;;;7.73;5.80;;;22.00;96.90;;;;;;5028381;28;20565;-54
2021/07/27 10:21:37;;;;;;;10.73;5.93;;;22.20;97.70;;;;;;5027791;28;20414;-53
2021/07/27 10:24:20;;;;;;;7.47;5.10;;;22.40;96.80;;;;;;5027469;28;20450;-53
2021/07/27 10:26:47;;;;;;;8.03;5.30;;;22.60;93.00;;;;;;5020582;28;20533;-53
2021/07/27 10:29:13;;;;;;;8.40;5.83;;;22.70;89.30;;;;;;5027591;28;21001;-54
2021/07/27 10:31:40;;;;;;;9.43;6.80;;;22.70;83.90;;;;;;5021389;28;20938;-53
2021/07/27 10:34:07;;;;;;;6.43;5.33;;;22.70;88.10;;;;;;5025427;28;20585;-54
2021/07/27 10:36:44;;;;;;;6.90;4.90;;;22.60;88.10;;;;;;5018428;28;20430;-54
2021/07/27 10:39:16;;;;;;;11.93;5.80;;;22.70;91.60;;;;;;5024970;28;20429;-55
2021/07/27 10:41:48;;;;;;;8.73;5.10;;;22.90;89.80;;;;;;5025178;28;20434;-55
2021/07/27 10:44:21;;;;;;;8.77;5.17;;;22.90;88.60;;;;;;5015972;28;20966;-54
2021/07/27 10:46:49;;;;;;;7.87;5.50;;;23.00;87.10;;;;;;5024763;28;20974;-55
2021/07/27 10:49:25;;;;;;;11.90;6.80;;;22.90;88.80;;;;;;5027466;28;20860;-54
2021/07/27 10:52:02;;;;;;;9.13;5.43;;;22.90;90.80;;;;;;5028082;28;20449;-54
2021/07/27 10:54:29;;;;;;;6.73;5.40;;;22.80;91.60;;;;;;5022411;28;20427;-54
2021/07/27 10:57:05;;;;;;;7.70;5.00;;;22.70;89.80;;;;;;5011622;28;20435;-54
2021/07/27 10:59:33;;;;;;;6.43;4.97;;;22.70;91.10;;;;;;5017516;28;20757;-55
2021/07/27 11:01:59;;;;;;;8.47;5.40;;;22.80;93.10;;;;;;5023834;28;20899;-53
2021/07/27 11:04:32;;;;;;;6.97;5.00;;;22.90;92.80;;;;;;5025642;28;20453;-54
2021/07/27 11:07:18;;;;;;;9.20;5.00;;;22.90;92.60;;;;;;5027213;28;20446;-54
2021/07/27 11:09:52;;;;;;;8.50;6.03;;;22.90;91.00;;;;;;5023461;28;20414;-54
2021/07/27 11:12:27;;;;;;;7.50;5.73;;;22.90;90.50;;;;;;5026766;28;20517;-54
2021/07/27 11:15:25;;;;;;;13.30;5.60;;;23.00;90.90;;;;;;5022629;28;20946;-57
2021/07/27 11:18:02;;;;;;;8.10;5.27;;;23.00;91.00;;;;;;5007464;28;20454;-58
2021/07/27 11:20:31;;;;;;;11.77;5.77;;;23.10;91.20;;;;;;5025554;28;20838;-57
2021/07/27 11:23:10;;;;;;;7.83;5.10;;;23.10;91.30;;;;;;5024018;28;20493;-58
2021/07/27 11:25:35;;;;;;;8.60;5.43;;;23.10;88.60;;;;;;5024124;28;20505;-58
2021/07/27 11:28:15;;;;;;;9.60;5.30;;;23.00;90.30;;;;;;5022875;28;20561;-58
2021/07/27 11:30:42;;;;;;;7.60;5.40;;;22.90;91.50;;;;;;5021822;28;20230;-58
2021/07/27 11:33:17;;;;;;;7.73;5.80;;;22.90;93.10;;;;;;5026183;28;20423;-58
2021/07/27 11:35:53;;;;;;;16.30;6.27;;;22.90;92.10;;;;;;5022975;28;20437;-59
2021/07/27 11:38:33;;;;;;;8.50;5.07;;;22.90;88.70;;;;;;5022777;28;20515;-59
2021/07/27 11:41:07;;;;;;;8.73;4.50;;;22.90;86.10;;;;;;5038705;28;20496;-59
2021/07/27 11:43:34;;;;;;;8.20;5.20;;;22.90;84.20;;;;;;5024103;28;21011;-58
2021/07/27 11:46:09;;;;;;;6.43;5.00;;;23.00;78.60;;;;;;5023235;28;20433;-57
2021/07/27 11:48:36;;;;;;;7.13;5.23;;;23.00;81.10;;;;;;5024383;28;20437;-59
2021/07/27 11:51:02;;;;;;;6.30;5.30;;;23.00;78.60;;;;;;5024774;28;20450;-58
2021/07/27 11:53:31;;;;;;;9.63;6.33;;;23.00;82.30;;;;;;5025523;28;20477;-58
2021/07/27 11:56:18;;;;;;;6.63;5.43;;;23.00;86.30;;;;;;5023738;28;20516;-58
2021/07/27 11:58:47;;;;;;;9.53;5.60;;;22.90;85.00;;;;;;5025727;28;20708;-57
2021/07/27 12:01:14;;;;;;;13.90;6.00;;;22.80;84.20;;;;;;5024753;28;20430;-56
2021/07/27 12:03:40;;;;;;;11.43;5.53;;;22.80;88.80;;;;;;5022323;28;20462;-56
2021/07/27 12:06:15;;;;;;;6.93;5.30;;;22.70;90.80;;;;;;5024359;28;20427;-55
2021/07/27 12:08:42;;;;;;;7.17;5.63;;;22.60;91.00;;;;;;5025177;28;20446;-55
2021/07/27 12:11:08;;;;;;;6.80;5.17;;;22.60;90.80;;;;;;5024713;28;20422;-56
2021/07/27 12:13:34;;;;;;;6.67;5.20;;;22.50;89.10;;;;;;5026645;28;20438;-56
2021/07/27 12:16:00;;;;;;;7.20;5.20;;;22.50;82.70;;;;;;5027977;28;20430;-55
2021/07/27 12:18:26;;;;;;;6.53;5.30;;;22.50;78.90;;;;;;5026163;28;20200;-58
2021/07/27 12:20:51;;;;;;;8.87;5.60;;;22.50;73.10;;;;;;5022448;28;20426;-56
2021/07/27 12:23:20;;;;;;;10.20;6.27;;;22.60;73.70;;;;;;5029210;28;20535;-55
2021/07/27 12:25:46;;;;;;;8.70;6.17;;;22.80;77.90;;;;;;5026912;28;20176;-58
2021/07/27 12:28:12;;;;;;;6.87;5.40;;;23.00;81.70;;;;;;5025040;28;20519;-55
2021/07/27 12:30:38;;;;;;;6.10;5.00;;;23.20;74.30;;;;;;5024318;28;20190;-57
2021/07/27 12:33:03;;;;;;;11.17;5.03;;;23.30;73.50;;;;;;5022119;28;20438;-57
2021/07/27 12:35:29;;;;;;;7.57;5.47;;;23.60;72.80;;;;;;5024778;28;20184;-56
2021/07/27 12:37:56;;;;;;;6.70;5.20;;;23.80;75.30;;;;;;5025887;28;20207;-56
2021/07/27 12:40:22;;;;;;;6.90;5.20;;;24.10;75.70;;;;;;5019862;28;20265;-56
2021/07/27 12:42:47;;;;;;;7.80;5.30;;;24.50;77.10;;;;;;5020796;28;20553;-56
2021/07/27 12:45:13;;;;;;;7.70;5.60;;;24.70;71.90;;;;;;5031038;28;20259;-55
2021/07/27 12:47:39;;;;;;;6.57;4.53;;;24.90;68.60;;;;;;5030853;28;20208;-56
2021/07/27 12:50:06;;;;;;;7.03;5.00;;;25.20;68.30;;;;;;5035723;28;20171;-56
2021/07/27 12:52:32;;;;;;;6.53;5.60;;;25.50;66.40;;;;;;5031721;28;20278;-55
2021/07/27 12:54:58;;;;;;;11.03;6.07;;;25.70;60.10;;;;;;5033519;28;20483;-55
2021/07/27 12:57:24;;;;;;;6.33;5.13;;;25.70;61.30;;;;;;5022615;28;20198;-56
2021/07/27 12:59:49;;;;;;;6.70;4.70;;;25.90;61.90;;;;;;5011266;28;20439;-57
2021/07/27 13:02:18;;;;;;;7.07;4.70;;;26.00;61.30;;;;;;5023802;28;20269;-57
2021/07/27 13:04:44;;;;;;;8.40;5.00;;;26.00;59.60;;;;;;5026763;28;20179;-58
2021/07/27 13:07:11;;;;;;;7.50;4.57;;;25.90;59.90;;;;;;5020316;28;20496;-57
2021/07/27 13:09:36;;;;;;;5.23;4.20;;;25.60;59.10;;;;;;5019810;28;20328;-57